createdAt,value
2023-01-29T00:01:58.751Z,-0.29
2023-01-29T00:04:28.127Z,-0.30
2023-01-29T00:06:55.974Z,-0.34
2023-01-29T00:09:23.787Z,-0.37
2023-01-29T00:11:51.671Z,-0.43
2023-01-29T00:14:20.175Z,-0.45
2023-01-29T00:16:47.971Z,-0.46
2023-01-29T00:19:15.963Z,-0.50
2023-01-29T00:21:45.089Z,-0.53
2023-01-29T00:24:13.088Z,-0.55
2023-01-29T00:26:42.419Z,-0.57
2023-01-29T00:29:10.425Z,-0.57
2023-01-29T00:31:38.351Z,-0.59
2023-01-29T00:34:08.196Z,-0.61
2023-01-29T00:36:35.988Z,-0.64
2023-01-29T00:39:10.830Z,-0.63
2023-01-29T00:41:56.766Z,-0.67
2023-01-29T00:44:42.186Z,-0.71
2023-01-29T00:47:30.683Z,-0.73
2023-01-29T00:49:58.734Z,-0.75
2023-01-29T00:52:26.896Z,-0.76
2023-01-29T00:54:57.486Z,-0.75
2023-01-29T00:57:26.966Z,-0.78
2023-01-29T00:59:55.382Z,-0.79
2023-01-29T01:02:41.607Z,-0.81
2023-01-29T01:05:14.042Z,-0.82
2023-01-29T01:07:42.180Z,-0.84
2023-01-29T01:10:24.403Z,-0.81
2023-01-29T01:12:55.922Z,-0.84
2023-01-29T01:15:24.597Z,-0.83
2023-01-29T01:17:56.640Z,-0.81
2023-01-29T01:20:25.185Z,-0.88
2023-01-29T01:22:55.158Z,-0.83
2023-01-29T01:25:25.606Z,-0.82
2023-01-29T01:27:54.076Z,-0.82
2023-01-29T01:30:22.160Z,-0.83
2023-01-29T01:32:50.321Z,-0.82
2023-01-29T01:35:18.256Z,-0.82
2023-01-29T01:37:46.083Z,-0.83
2023-01-29T01:40:18.396Z,-0.83
2023-01-29T01:42:49.283Z,-0.83
2023-01-29T01:45:21.800Z,-0.84
2023-01-29T01:47:53.721Z,-0.85
2023-01-29T01:50:25.857Z,-0.86
2023-01-29T01:52:56.518Z,-0.89
2023-01-29T01:55:27.419Z,-0.89
2023-01-29T01:58:00.588Z,-0.91
2023-01-29T02:00:28.589Z,-1.14
2023-01-29T02:03:14.272Z,-1.01
2023-01-29T02:06:00.001Z,-1.01
2023-01-29T02:08:50.527Z,-1.02
2023-01-29T02:11:19.112Z,-1.07
2023-01-29T02:13:53.506Z,-1.07
2023-01-29T02:16:26.466Z,-1.11
2023-01-29T02:18:56.622Z,-1.13
2023-01-29T02:21:47.029Z,-1.11
2023-01-29T02:24:41.226Z,-1.14
2023-01-29T02:27:12.665Z,-1.20
2023-01-29T02:29:51.532Z,-1.18
2023-01-29T02:32:29.793Z,-1.20
2023-01-29T02:35:28.270Z,-1.19
2023-01-29T02:38:02.780Z,-1.22
2023-01-29T02:40:36.121Z,-1.21
2023-01-29T02:43:16.045Z,-1.19
2023-01-29T02:45:50.256Z,-1.18
2023-01-29T02:48:23.573Z,-1.17
2023-01-29T02:50:57.953Z,-1.15
2023-01-29T02:53:34.434Z,-1.14
2023-01-29T02:56:08.512Z,-1.15
2023-01-29T02:58:40.747Z,-1.13
2023-01-29T03:01:16.146Z,-1.14
2023-01-29T03:03:46.863Z,-1.13
2023-01-29T03:06:22.358Z,-1.11
2023-01-29T03:08:56.896Z,-1.10
2023-01-29T03:11:24.922Z,-1.12
2023-01-29T03:13:57.852Z,-1.11
2023-01-29T03:16:32.180Z,-1.31
2023-01-29T03:19:06.315Z,-1.15
2023-01-29T03:21:55.306Z,-1.12
2023-01-29T03:24:49.462Z,-1.14
2023-01-29T03:27:39.189Z,-1.19
2023-01-29T03:30:29.435Z,-1.19
2023-01-29T03:33:12.182Z,-1.22
2023-01-29T03:35:48.403Z,-1.22
2023-01-29T03:38:17.104Z,-1.25
2023-01-29T03:40:49.608Z,-1.24
2023-01-29T03:43:32.197Z,-1.23
2023-01-29T03:46:06.028Z,-1.25
2023-01-29T03:48:39.594Z,-1.24
2023-01-29T03:51:17.150Z,-1.25
2023-01-29T03:53:52.614Z,-1.26
2023-01-29T03:56:34.172Z,-1.26
2023-01-29T03:59:11.099Z,-1.28
2023-01-29T04:02:02.541Z,-1.32
2023-01-29T04:04:34.133Z,-1.32
2023-01-29T04:07:10.412Z,-1.36
2023-01-29T04:09:44.089Z,-1.37
2023-01-29T04:12:15.083Z,-1.39
2023-01-29T04:14:46.328Z,-1.43
2023-01-29T04:17:19.749Z,-1.41
2023-01-29T04:20:13.212Z,-1.43
2023-01-29T04:22:47.093Z,-1.44
2023-01-29T04:25:18.326Z,-1.44
2023-01-29T04:27:54.597Z,-1.41
2023-01-29T04:30:35.744Z,-1.40
2023-01-29T04:33:17.997Z,-1.40
2023-01-29T04:36:19.019Z,-1.38
2023-01-29T04:39:00.599Z,-1.39
2023-01-29T04:41:34.435Z,-1.38
2023-01-29T04:44:09.607Z,-1.35
2023-01-29T04:46:45.311Z,-1.33
2023-01-29T04:49:26.224Z,-1.32
2023-01-29T04:52:01.367Z,-1.32
2023-01-29T04:54:36.432Z,-1.31
2023-01-29T04:57:14.944Z,-1.29
2023-01-29T04:59:46.849Z,-1.30
2023-01-29T05:02:14.863Z,-1.30
2023-01-29T05:04:45.754Z,-1.29
2023-01-29T05:07:16.253Z,-1.28
2023-01-29T05:09:46.439Z,-1.30
2023-01-29T05:12:17.012Z,-1.31
2023-01-29T05:14:46.930Z,-1.33
2023-01-29T05:17:17.369Z,-1.33
2023-01-29T05:19:45.835Z,-1.34
2023-01-29T05:22:18.662Z,-1.34
2023-01-29T05:24:46.588Z,-1.36
2023-01-29T05:27:36.255Z,-1.36
2023-01-29T05:30:04.672Z,-1.39
2023-01-29T05:32:32.478Z,-1.40
2023-01-29T05:35:00.377Z,-1.41
2023-01-29T05:37:29.481Z,-1.43
2023-01-29T05:39:57.299Z,-1.44
2023-01-29T05:42:25.107Z,-1.45
2023-01-29T05:44:52.956Z,-1.44
2023-01-29T05:47:20.875Z,-1.44
2023-01-29T05:49:48.706Z,-1.43
2023-01-29T05:52:16.459Z,-1.41
2023-01-29T05:54:45.675Z,-1.41
2023-01-29T05:57:13.483Z,-1.39
2023-01-29T05:59:41.323Z,-1.39
2023-01-29T06:02:09.083Z,-1.37
2023-01-29T06:04:37.061Z,-1.34
2023-01-29T06:07:05.172Z,-1.34
2023-01-29T06:09:33.007Z,-1.32
2023-01-29T06:12:02.578Z,-1.30
2023-01-29T06:14:30.355Z,-1.29
2023-01-29T06:16:58.113Z,-1.27
2023-01-29T06:19:26.132Z,-1.26
2023-01-29T06:21:53.859Z,-1.26
2023-01-29T06:24:21.749Z,-1.24
2023-01-29T06:26:49.563Z,-1.24
2023-01-29T06:29:18.748Z,-1.23
2023-01-29T06:31:46.603Z,-1.23
2023-01-29T06:34:14.448Z,-1.21
2023-01-29T06:36:42.637Z,-1.21
2023-01-29T06:39:10.731Z,-1.22
2023-01-29T06:41:38.500Z,-1.19
2023-01-29T06:44:06.654Z,-1.16
2023-01-29T06:46:35.819Z,-1.14
2023-01-29T06:49:03.727Z,-1.14
2023-01-29T06:51:31.540Z,-1.14
2023-01-29T06:53:59.387Z,-1.11
2023-01-29T06:56:27.317Z,-1.11
2023-01-29T06:58:55.238Z,-1.10
2023-01-29T07:01:35.242Z,-1.09
2023-01-29T07:04:05.293Z,-1.09
2023-01-29T07:06:33.433Z,-1.08
2023-01-29T07:09:01.364Z,-1.07
2023-01-29T07:11:29.155Z,-1.05
2023-01-29T07:13:57.011Z,-1.03
2023-01-29T07:16:25.044Z,-1.02
2023-01-29T07:18:53.215Z,-1.02
2023-01-29T07:21:22.392Z,-0.99
2023-01-29T07:23:50.203Z,-1.00
2023-01-29T07:26:18.435Z,-1.01
2023-01-29T07:28:46.211Z,-0.99
2023-01-29T07:31:15.449Z,-0.99
2023-01-29T07:33:44.267Z,-0.98
2023-01-29T07:36:13.234Z,-0.99
2023-01-29T07:38:42.536Z,-0.97
2023-01-29T07:41:11.314Z,-0.96
2023-01-29T07:43:39.209Z,-0.95
2023-01-29T07:46:07.014Z,-0.93
2023-01-29T07:48:35.180Z,-0.91
2023-01-29T07:51:03.315Z,-0.90
2023-01-29T07:53:31.907Z,-0.87
2023-01-29T07:56:01.104Z,-0.86
2023-01-29T07:58:28.980Z,-0.84
2023-01-29T08:00:56.845Z,-0.83
2023-01-29T08:03:24.812Z,-0.81
2023-01-29T08:05:52.567Z,-0.78
2023-01-29T08:08:20.436Z,-0.75
2023-01-29T08:10:48.557Z,-0.73
2023-01-29T08:13:17.993Z,-0.70
2023-01-29T08:15:46.228Z,-0.69
2023-01-29T08:18:14.062Z,-0.67
2023-01-29T08:20:41.867Z,-0.64
2023-01-29T08:23:13.660Z,-0.62
2023-01-29T08:25:42.114Z,-0.62
2023-01-29T08:28:10.197Z,-0.59
2023-01-29T08:30:39.870Z,-0.56
2023-01-29T08:33:07.792Z,-0.57
2023-01-29T08:35:35.602Z,-0.55
2023-01-29T08:38:04.636Z,-0.53
2023-01-29T08:40:34.970Z,-0.52
2023-01-29T08:43:06.182Z,-0.52
2023-01-29T08:45:36.604Z,-0.50
2023-01-29T08:48:06.448Z,-0.47
2023-01-29T08:50:35.408Z,-0.49
2023-01-29T08:53:05.421Z,-0.46
2023-01-29T08:55:33.231Z,-0.45
2023-01-29T08:58:01.005Z,-0.46
2023-01-29T09:00:28.924Z,-0.44
2023-01-29T09:02:56.731Z,-0.41
2023-01-29T09:05:26.055Z,-0.39
2023-01-29T09:07:54.335Z,-0.38
2023-01-29T09:10:22.229Z,-0.37
2023-01-29T09:12:50.123Z,-0.35
2023-01-29T09:15:18.321Z,-0.33
2023-01-29T09:17:46.329Z,-0.31
2023-01-29T09:20:14.195Z,-0.30
2023-01-29T09:22:43.392Z,-0.27
2023-01-29T09:25:11.949Z,-0.27
2023-01-29T09:27:39.996Z,-0.26
2023-01-29T09:30:08.827Z,-0.23
2023-01-29T09:32:53.084Z,-0.23
2023-01-29T09:35:22.780Z,-0.22
2023-01-29T09:37:52.697Z,-0.20
2023-01-29T09:40:27.093Z,-0.18
2023-01-29T09:42:58.973Z,-0.18
2023-01-29T09:45:29.478Z,-0.18
2023-01-29T09:48:01.369Z,-0.17
2023-01-29T09:50:33.589Z,-0.14
2023-01-29T09:53:13.625Z,-0.12
2023-01-29T09:55:47.456Z,-0.10
2023-01-29T09:58:20.501Z,-0.08
2023-01-29T10:00:58.981Z,-0.06
2023-01-29T10:03:42.415Z,-0.06
2023-01-29T10:06:24.473Z,-0.03
2023-01-29T10:09:17.750Z,-0.02
2023-01-29T10:11:56.905Z,-0.02
2023-01-29T10:14:37.947Z,0.02
2023-01-29T10:17:22.860Z,0.04
2023-01-29T10:20:04.579Z,0.07
2023-01-29T10:22:58.725Z,0.08
2023-01-29T10:25:28.810Z,0.09
2023-01-29T10:28:00.624Z,0.11
2023-01-29T10:30:33.028Z,0.14
2023-01-29T10:33:04.298Z,0.14
2023-01-29T10:35:37.296Z,0.18
2023-01-29T10:38:16.613Z,-0.03
2023-01-29T10:40:50.372Z,0.19
2023-01-29T10:43:25.517Z,0.24
2023-01-29T10:46:01.439Z,0.27
2023-01-29T10:48:54.572Z,0.27
2023-01-29T10:51:36.527Z,0.29
2023-01-29T10:54:22.595Z,0.32
2023-01-29T10:57:02.903Z,0.34
2023-01-29T10:59:49.973Z,0.38
2023-01-29T11:02:21.344Z,0.39
2023-01-29T11:04:49.554Z,0.41
2023-01-29T11:07:20.894Z,0.44
2023-01-29T11:09:57.284Z,0.48
2023-01-29T11:12:30.672Z,0.50
2023-01-29T11:15:04.981Z,0.55
2023-01-29T11:17:32.889Z,0.59
2023-01-29T11:20:00.705Z,0.62
2023-01-29T11:22:29.772Z,0.65
2023-01-29T11:25:16.505Z,0.70
2023-01-29T11:27:48.123Z,0.70
2023-01-29T11:30:22.705Z,0.72
2023-01-29T11:32:54.058Z,0.74
2023-01-29T11:35:24.535Z,0.76
2023-01-29T11:37:52.947Z,0.77
2023-01-29T11:40:45.235Z,0.78
2023-01-29T11:43:30.569Z,0.80
2023-01-29T11:46:01.793Z,0.80
2023-01-29T11:48:40.607Z,0.83
2023-01-29T11:51:11.459Z,0.82
2023-01-29T11:53:41.679Z,0.83
2023-01-29T11:56:23.478Z,0.85
2023-01-29T11:58:57.584Z,0.84
2023-01-29T12:01:33.380Z,0.85
2023-01-29T12:04:02.338Z,0.85
2023-01-29T12:06:36.773Z,0.88
2023-01-29T12:09:11.834Z,0.88
2023-01-29T12:11:39.716Z,0.87
2023-01-29T12:14:27.941Z,0.89
2023-01-29T12:16:59.398Z,0.87
2023-01-29T12:19:36.042Z,0.91
2023-01-29T12:22:10.637Z,0.91
2023-01-29T12:24:46.450Z,0.93
2023-01-29T12:27:20.703Z,0.93
2023-01-29T12:29:56.170Z,0.95
2023-01-29T12:32:33.452Z,0.95
2023-01-29T12:35:07.389Z,0.95
2023-01-29T12:37:42.167Z,0.96
2023-01-29T12:40:15.737Z,0.96
2023-01-29T12:42:49.151Z,0.97
2023-01-29T12:45:21.017Z,0.97
2023-01-29T12:47:51.203Z,0.97
2023-01-29T12:50:22.144Z,0.99
2023-01-29T12:52:53.999Z,1.00
2023-01-29T12:55:25.697Z,0.99
2023-01-29T12:57:58.170Z,1.00
2023-01-29T13:00:30.734Z,1.00
2023-01-29T13:03:02.856Z,1.00
2023-01-29T13:05:36.067Z,1.00
2023-01-29T13:08:08.552Z,1.01
2023-01-29T13:10:42.246Z,1.01
2023-01-29T13:13:18.012Z,1.04
2023-01-29T13:15:49.446Z,1.05
2023-01-29T13:18:35.072Z,1.06
2023-01-29T13:21:03.312Z,1.06
2023-01-29T13:23:35.423Z,1.08
2023-01-29T13:26:03.788Z,1.07
2023-01-29T13:28:32.026Z,1.11
2023-01-29T13:31:25.355Z,1.12
2023-01-29T13:33:56.264Z,1.11
2023-01-29T13:36:29.370Z,1.15
2023-01-29T13:39:00.274Z,0.95
2023-01-29T13:41:36.904Z,1.15
2023-01-29T13:44:09.176Z,1.18
2023-01-29T13:46:42.795Z,1.20
2023-01-29T13:49:29.165Z,1.23
2023-01-29T13:51:58.396Z,1.23
2023-01-29T13:54:28.477Z,1.26
2023-01-29T13:57:02.219Z,1.28
2023-01-29T13:59:53.301Z,1.28
2023-01-29T14:02:25.421Z,1.28
2023-01-29T14:04:53.653Z,1.28
2023-01-29T14:07:50.393Z,1.32
2023-01-29T14:10:21.328Z,1.30
2023-01-29T14:12:53.734Z,1.33
2023-01-29T14:15:30.276Z,1.33
2023-01-29T14:18:19.390Z,1.33
2023-01-29T14:21:02.362Z,1.35
2023-01-29T14:23:46.762Z,1.34
2023-01-29T14:26:28.343Z,1.37
2023-01-29T14:29:08.661Z,1.38
2023-01-29T14:31:45.712Z,1.40
2023-01-29T14:34:23.549Z,1.40
2023-01-29T14:36:56.184Z,1.40
2023-01-29T14:39:33.227Z,1.39
2023-01-29T14:42:05.018Z,1.41
2023-01-29T14:44:59.331Z,1.43
2023-01-29T14:47:56.175Z,1.43
2023-01-29T14:50:44.518Z,1.41
2023-01-29T14:53:17.667Z,1.42
2023-01-29T14:55:46.223Z,1.23
2023-01-29T14:58:17.377Z,1.41
2023-01-29T15:00:50.658Z,1.45
2023-01-29T15:03:23.412Z,1.46
2023-01-29T15:05:53.662Z,1.47
2023-01-29T15:08:30.151Z,1.49
2023-01-29T15:11:19.167Z,1.48
2023-01-29T15:13:53.241Z,1.48
2023-01-29T15:16:25.985Z,1.49
2023-01-29T15:18:58.231Z,1.48
2023-01-29T15:21:27.522Z,1.49
2023-01-29T15:24:06.030Z,1.53
2023-01-29T15:26:34.770Z,1.51
2023-01-29T15:29:04.854Z,1.52
2023-01-29T15:31:33.565Z,1.53
2023-01-29T15:34:07.460Z,1.56
2023-01-29T15:36:39.819Z,1.55
2023-01-29T15:39:16.389Z,1.55
2023-01-29T15:41:44.464Z,1.54
2023-01-29T15:44:16.274Z,1.57
2023-01-29T15:46:48.139Z,1.57
2023-01-29T15:49:21.662Z,1.59
2023-01-29T15:51:57.456Z,1.59
2023-01-29T15:54:26.952Z,1.57
2023-01-29T15:56:55.565Z,1.58
2023-01-29T15:59:26.471Z,1.59
2023-01-29T16:01:54.843Z,1.59
2023-01-29T16:04:26.853Z,1.60
2023-01-29T16:06:57.242Z,1.59
2023-01-29T16:09:27.480Z,1.60
2023-01-29T16:11:59.785Z,1.61
2023-01-29T16:14:29.563Z,1.60
2023-01-29T16:16:57.445Z,1.62
2023-01-29T16:19:28.391Z,1.63
2023-01-29T16:22:01.277Z,1.66
2023-01-29T16:24:31.067Z,1.66
2023-01-29T16:27:01.085Z,1.68
2023-01-29T16:29:32.651Z,1.72
2023-01-29T16:32:02.893Z,1.74
2023-01-29T16:34:33.779Z,1.78
2023-01-29T16:37:06.090Z,1.84
2023-01-29T16:39:37.257Z,1.87
2023-01-29T16:42:23.302Z,1.94
2023-01-29T16:44:56.618Z,1.97
2023-01-29T16:47:36.061Z,2.01
2023-01-29T16:50:20.847Z,2.01
2023-01-29T16:52:58.676Z,2.03
2023-01-29T16:55:27.089Z,2.03
2023-01-29T16:57:57.009Z,2.04
2023-01-29T17:00:28.030Z,2.05
2023-01-29T17:03:00.594Z,2.05
2023-01-29T17:05:30.525Z,2.04
2023-01-29T17:08:00.302Z,2.05
2023-01-29T17:10:29.948Z,2.05
2023-01-29T17:12:59.699Z,2.06
2023-01-29T17:15:34.097Z,2.07
2023-01-29T17:18:02.193Z,2.03
2023-01-29T17:20:31.692Z,2.04
2023-01-29T17:23:01.021Z,2.04
2023-01-29T17:25:30.071Z,2.02
2023-01-29T17:28:01.624Z,2.03
2023-01-29T17:30:33.783Z,2.02
2023-01-29T17:33:02.834Z,1.99
2023-01-29T17:35:30.758Z,2.00
2023-01-29T17:37:59.956Z,1.99
2023-01-29T17:40:36.979Z,2.01
2023-01-29T17:43:05.048Z,1.98
2023-01-29T17:45:32.841Z,1.99
2023-01-29T17:48:00.886Z,1.99
2023-01-29T17:50:31.959Z,1.99
2023-01-29T17:53:02.677Z,1.98
2023-01-29T17:55:30.529Z,1.98
2023-01-29T17:57:58.340Z,1.97
2023-01-29T18:00:26.227Z,1.98
2023-01-29T18:02:54.322Z,1.98
2023-01-29T18:05:22.186Z,1.97
2023-01-29T18:07:52.171Z,1.97
2023-01-29T18:10:23.012Z,1.98
2023-01-29T18:12:50.867Z,1.96
2023-01-29T18:15:19.868Z,1.96
2023-01-29T18:17:48.975Z,1.97
2023-01-29T18:20:20.432Z,1.98
2023-01-29T18:22:48.787Z,1.96
2023-01-29T18:25:19.269Z,1.95
2023-01-29T18:27:48.969Z,1.97
2023-01-29T18:30:17.382Z,1.97
2023-01-29T18:32:47.151Z,1.96
2023-01-29T18:35:15.285Z,1.97
2023-01-29T18:37:43.198Z,1.95
2023-01-29T18:40:13.784Z,1.97
2023-01-29T18:42:41.713Z,1.95
2023-01-29T18:45:12.072Z,1.97
2023-01-29T18:47:40.990Z,1.96
2023-01-29T18:50:09.771Z,1.96
2023-01-29T18:52:37.642Z,1.96
2023-01-29T18:55:05.982Z,1.98
2023-01-29T18:58:29.196Z,1.98
2023-01-29T19:00:24.871Z,1.97
2023-01-29T19:02:52.675Z,1.97
2023-01-29T19:05:22.804Z,1.98
2023-01-29T19:07:50.951Z,1.99
2023-01-29T19:10:19.418Z,1.99
2023-01-29T19:12:47.693Z,1.98
2023-01-29T19:15:16.470Z,1.99
2023-01-29T19:17:45.815Z,2.01
2023-01-29T19:20:13.947Z,2.01
2023-01-29T19:22:43.131Z,2.02
2023-01-29T19:25:11.482Z,2.02
2023-01-29T19:27:39.434Z,2.03
2023-01-29T19:30:08.567Z,2.04
2023-01-29T19:32:36.403Z,2.04
2023-01-29T19:35:06.385Z,2.05
2023-01-29T19:37:34.243Z,2.04
2023-01-29T19:40:02.088Z,2.05
2023-01-29T19:42:29.901Z,2.05
2023-01-29T19:44:57.778Z,2.07
2023-01-29T19:47:25.632Z,2.07
2023-01-29T19:49:55.784Z,2.07
2023-01-29T19:52:52.197Z,2.08
2023-01-29T19:55:20.909Z,2.06
2023-01-29T19:57:49.214Z,2.08
2023-01-29T20:00:18.362Z,2.09
2023-01-29T20:02:46.237Z,2.09
2023-01-29T20:05:18.335Z,2.11
2023-01-29T20:07:49.701Z,2.09
2023-01-29T20:10:18.161Z,2.11
2023-01-29T20:12:46.912Z,2.13
2023-01-29T20:15:15.668Z,2.13
2023-01-29T20:17:43.634Z,2.14
2023-01-29T20:20:12.254Z,2.15
2023-01-29T20:22:40.114Z,2.15
2023-01-29T20:25:13.511Z,2.16
2023-01-29T20:27:41.679Z,2.15
2023-01-29T20:30:10.929Z,2.17
2023-01-29T20:32:38.967Z,2.17
2023-01-29T20:35:07.951Z,2.18
2023-01-29T20:37:35.819Z,2.18
2023-01-29T20:40:03.741Z,2.19
2023-01-29T20:42:33.063Z,2.19
2023-01-29T20:45:00.930Z,2.19
2023-01-29T20:47:28.827Z,2.19
2023-01-29T20:49:56.751Z,2.19
2023-01-29T20:52:25.236Z,2.20
2023-01-29T20:54:53.443Z,2.20
2023-01-29T20:57:21.429Z,2.21
2023-01-29T20:59:50.601Z,2.23
2023-01-29T21:02:18.617Z,2.23
2023-01-29T21:04:46.725Z,2.23
2023-01-29T21:07:14.667Z,2.24
2023-01-29T21:09:42.993Z,2.26
2023-01-29T21:12:11.151Z,2.25
2023-01-29T21:14:38.977Z,2.27
2023-01-29T21:17:08.176Z,2.29
2023-01-29T21:19:35.997Z,2.28
2023-01-29T21:22:04.633Z,2.29
2023-01-29T21:24:32.479Z,2.30
2023-01-29T21:27:00.307Z,2.31
2023-01-29T21:29:28.585Z,2.31
2023-01-29T21:31:56.393Z,2.32
2023-01-29T21:34:25.862Z,2.34
2023-01-29T21:36:53.697Z,2.35
2023-01-29T21:39:24.310Z,2.35
2023-01-29T21:42:10.349Z,2.37
2023-01-29T21:44:38.863Z,2.37
2023-01-29T21:47:12.332Z,2.39
2023-01-29T21:49:43.127Z,2.40
2023-01-29T21:52:12.718Z,2.42
2023-01-29T21:54:41.395Z,2.44
2023-01-29T21:57:14.882Z,2.46
2023-01-29T21:59:43.315Z,2.47
2023-01-29T22:02:16.013Z,2.47
2023-01-29T22:04:45.229Z,2.50
2023-01-29T22:07:13.913Z,2.51
2023-01-29T22:09:42.010Z,2.52
2023-01-29T22:12:10.065Z,2.53
2023-01-29T22:14:37.898Z,2.54
2023-01-29T22:17:06.350Z,2.55
2023-01-29T22:19:34.115Z,2.56
2023-01-29T22:22:03.308Z,2.57
2023-01-29T22:24:31.127Z,2.58
2023-01-29T22:26:58.991Z,2.59
2023-01-29T22:29:26.842Z,2.60
2023-01-29T22:31:56.520Z,2.60
2023-01-29T22:34:24.339Z,2.61
2023-01-29T22:36:52.720Z,2.63
2023-01-29T22:39:21.966Z,2.63
2023-01-29T22:41:49.780Z,2.63
2023-01-29T22:44:17.557Z,2.65
2023-01-29T22:46:45.642Z,2.64
2023-01-29T22:49:13.523Z,2.67
2023-01-29T22:51:41.517Z,2.67
2023-01-29T22:54:09.308Z,2.67
2023-01-29T22:56:38.480Z,2.69
2023-01-29T22:59:06.280Z,2.69
2023-01-29T23:01:34.079Z,2.69
2023-01-29T23:04:01.951Z,2.71
2023-01-29T23:06:29.748Z,2.71
2023-01-29T23:08:57.510Z,2.71
2023-01-29T23:11:25.282Z,2.73
2023-01-29T23:13:55.515Z,2.75
2023-01-29T23:16:26.932Z,2.76
2023-01-29T23:18:56.636Z,2.74
2023-01-29T23:21:25.532Z,2.75
2023-01-29T23:23:55.322Z,2.76
2023-01-29T23:26:40.823Z,2.76
2023-01-29T23:29:10.301Z,2.77
2023-01-29T23:31:38.091Z,2.77
2023-01-29T23:34:06.570Z,2.78
2023-01-29T23:36:34.347Z,2.79
2023-01-29T23:39:02.116Z,2.79
2023-01-29T23:41:29.881Z,2.80
2023-01-29T23:43:57.619Z,2.80
2023-01-29T23:46:26.871Z,2.81
2023-01-29T23:48:54.716Z,2.82
2023-01-29T23:51:22.502Z,2.82
2023-01-29T23:53:50.400Z,2.81
2023-01-29T23:56:18.265Z,2.83
2023-01-29T23:58:46.255Z,2.84
